createdAt,value
2018-04-24T00:01:01.473Z,1015.04
2018-04-24T00:02:10.305Z,1015.01
2018-04-24T00:03:19.143Z,1015.02
2018-04-24T00:04:27.976Z,1015.06
2018-04-24T00:05:36.909Z,1015.03
2018-04-24T00:06:46.014Z,1015.04
2018-04-24T00:07:55.118Z,1015.05
2018-04-24T00:09:03.953Z,1015
2018-04-24T00:10:12.786Z,1014.88
2018-04-24T00:11:21.720Z,1014.81
2018-04-24T00:12:30.553Z,1014.83
2018-04-24T00:13:39.386Z,1014.88
2018-04-24T00:14:48.219Z,1014.87
2018-04-24T00:15:57.057Z,1014.83
2018-04-24T00:17:05.892Z,1014.79
2018-04-24T00:18:15.316Z,1014.79
2018-04-24T00:19:24.099Z,1014.8
2018-04-24T00:20:32.929Z,1014.79
2018-04-24T00:21:41.760Z,1014.77
2018-04-24T00:22:50.695Z,1014.77
2018-04-24T00:23:59.529Z,1014.76
2018-04-24T00:25:08.639Z,1014.65
2018-04-24T00:26:17.470Z,1014.67
2018-04-24T00:27:26.304Z,1014.65
2018-04-24T00:28:35.136Z,1014.6
2018-04-24T00:29:43.970Z,1014.56
2018-04-24T00:30:52.810Z,1014.55
2018-04-24T00:32:01.642Z,1014.48
2018-04-24T00:33:10.476Z,1014.47
2018-04-24T00:34:19.708Z,1014.51
2018-04-24T00:35:28.464Z,1014.41
2018-04-24T00:36:37.575Z,1014.39
2018-04-24T00:37:46.408Z,1014.34
2018-04-24T00:38:55.239Z,1014.34
2018-04-24T00:40:04.344Z,1014.31
2018-04-24T00:41:13.180Z,1014.31
2018-04-24T00:42:22.010Z,1014.22
2018-04-24T00:43:30.841Z,1014.2
2018-04-24T00:44:39.674Z,1014.21
2018-04-24T00:45:48.758Z,1014.21
2018-04-24T00:46:57.497Z,1014.26
2018-04-24T00:48:06.327Z,1014.29
2018-04-24T00:49:15.160Z,1014.29
2018-04-24T00:50:23.996Z,1014.3
2018-04-24T00:51:33.024Z,1014.28
2018-04-24T00:52:41.857Z,1014.24
2018-04-24T00:53:50.962Z,1014.21
2018-04-24T00:54:59.794Z,1014.21
2018-04-24T00:56:08.630Z,1014.15
2018-04-24T00:57:17.508Z,1014.19
2018-04-24T00:58:26.344Z,1014.18
2018-04-24T00:59:35.172Z,1014.21
2018-04-24T01:00:44.286Z,1014.24
2018-04-24T01:01:53.388Z,1014.23
2018-04-24T01:03:02.546Z,1014.31
2018-04-24T01:04:11.381Z,1014.27
2018-04-24T01:05:20.213Z,1014.25
2018-04-24T01:06:29.044Z,1014.27
2018-04-24T01:07:38.155Z,1014.24
2018-04-24T01:08:47.337Z,1014.21
2018-04-24T01:09:56.170Z,1014.16
2018-04-24T01:11:05.006Z,1014.22
2018-04-24T01:12:14.108Z,1014.19
2018-04-24T01:13:22.941Z,1014.2
2018-04-24T01:14:31.776Z,1014.29
2018-04-24T01:15:40.609Z,1014.28
2018-04-24T01:16:49.447Z,1014.36
2018-04-24T01:17:58.276Z,1014.36
2018-04-24T01:19:07.107Z,1014.39
2018-04-24T01:20:16.041Z,1014.33
2018-04-24T01:21:24.874Z,1014.28
2018-04-24T01:22:33.706Z,1014.2
2018-04-24T01:23:42.542Z,1014.15
2018-04-24T01:24:51.431Z,1014.1
2018-04-24T01:26:00.547Z,1013.99
2018-04-24T01:27:09.381Z,1014.01
2018-04-24T01:28:18.212Z,1013.97
2018-04-24T01:29:27.042Z,1014.02
2018-04-24T01:30:35.876Z,1013.96
2018-04-24T01:31:44.859Z,1013.95
2018-04-24T01:32:53.691Z,1013.87
2018-04-24T01:34:02.802Z,1013.82
2018-04-24T01:35:11.636Z,1013.82
2018-04-24T01:36:20.473Z,1013.82
2018-04-24T01:37:29.505Z,1013.83
2018-04-24T01:38:38.337Z,1013.85
2018-04-24T01:39:47.171Z,1013.88
2018-04-24T01:40:56.007Z,1013.91
2018-04-24T01:42:04.833Z,1013.95
2018-04-24T01:43:14.348Z,1013.93
2018-04-24T01:44:23.177Z,1013.99
2018-04-24T01:45:32.013Z,1013.99
2018-04-24T01:46:41.119Z,1013.99
2018-04-24T01:47:49.951Z,1014.04
2018-04-24T01:48:58.936Z,1014.07
2018-04-24T01:50:07.767Z,1014.11
2018-04-24T01:51:16.601Z,1014.11
2018-04-24T01:52:25.439Z,1014.07
2018-04-24T01:53:34.272Z,1014.02
2018-04-24T01:54:43.205Z,1014.02
2018-04-24T01:55:52.037Z,1014.06
2018-04-24T01:57:00.871Z,1014.02
2018-04-24T01:58:09.704Z,1014.01
2018-04-24T01:59:18.538Z,1013.99
2018-04-24T02:00:27.924Z,1013.99
2018-04-24T02:01:37.036Z,1014.03
2018-04-24T02:02:46.142Z,1013.95
2018-04-24T02:03:55.253Z,1013.8
2018-04-24T02:05:04.363Z,1013.76
2018-04-24T02:06:13.494Z,1013.76
2018-04-24T02:07:22.609Z,1013.79
2018-04-24T02:08:31.444Z,1013.77
2018-04-24T02:09:40.274Z,1013.91
2018-04-24T02:10:49.382Z,1014.03
2018-04-24T02:11:58.316Z,1013.87
2018-04-24T02:13:07.147Z,1013.85
2018-04-24T02:14:15.978Z,1013.89
2018-04-24T02:15:25.087Z,1013.78
2018-04-24T02:16:33.919Z,1013.66
2018-04-24T02:17:42.750Z,1013.66
2018-04-24T02:18:51.587Z,1013.77
2018-04-24T02:20:00.416Z,1013.85
2018-04-24T02:21:09.248Z,1013.85
2018-04-24T02:22:18.357Z,1013.85
2018-04-24T02:23:27.297Z,1013.95
2018-04-24T02:24:36.130Z,1013.91
2018-04-24T02:25:44.963Z,1013.84
2018-04-24T02:26:54.074Z,1013.75
2018-04-24T02:28:03.806Z,1013.79
2018-04-24T02:29:12.742Z,1013.86
2018-04-24T02:30:21.580Z,1013.94
2018-04-24T02:31:30.415Z,1013.92
2018-04-24T02:32:39.581Z,1013.9
2018-04-24T02:33:48.361Z,1013.92
2018-04-24T02:34:57.640Z,1013.91
2018-04-24T02:36:06.756Z,1013.87
2018-04-24T02:37:16.157Z,1013.93
2018-04-24T02:38:24.990Z,1013.96
2018-04-24T02:39:33.822Z,1014
2018-04-24T02:40:43.134Z,1013.97
2018-04-24T02:41:51.968Z,1013.95
2018-04-24T02:43:01.096Z,1013.96
2018-04-24T02:44:10.207Z,1013.98
2018-04-24T02:45:19.320Z,1013.93
2018-04-24T02:46:28.153Z,1013.9
2018-04-24T02:47:37.263Z,1013.9
2018-04-24T02:48:46.370Z,1013.86
2018-04-24T02:49:55.487Z,1013.82
2018-04-24T02:51:04.605Z,1013.79
2018-04-24T02:52:13.819Z,1013.67
2018-04-24T02:53:22.938Z,1013.66
2018-04-24T02:54:31.771Z,1013.65
2018-04-24T02:55:40.611Z,1013.63
2018-04-24T02:56:49.447Z,1013.66
2018-04-24T02:57:58.853Z,1013.66
2018-04-24T02:59:07.687Z,1013.66
2018-04-24T03:00:16.799Z,1013.61
2018-04-24T03:01:25.637Z,1013.63
2018-04-24T03:02:34.480Z,1013.66
2018-04-24T03:03:43.594Z,1013.6
2018-04-24T03:04:52.707Z,1013.65
2018-04-24T03:06:01.540Z,1013.64
2018-04-24T03:07:10.370Z,1013.62
2018-04-24T03:08:19.481Z,1013.67
2018-04-24T03:09:28.465Z,1013.63
2018-04-24T03:10:37.302Z,1013.66
2018-04-24T03:11:46.476Z,1013.65
2018-04-24T03:12:55.853Z,1013.68
2018-04-24T03:14:05.613Z,1013.68
2018-04-24T03:15:14.978Z,1013.66
2018-04-24T03:16:24.086Z,1013.62
2018-04-24T03:17:32.919Z,1013.59
2018-04-24T03:18:41.750Z,1013.63
2018-04-24T03:19:50.583Z,1013.6
2018-04-24T03:20:59.516Z,1013.52
2018-04-24T03:22:08.348Z,1013.58
2018-04-24T03:23:17.182Z,1013.49
2018-04-24T03:24:26.017Z,1013.56
2018-04-24T03:25:34.848Z,1013.46
2018-04-24T03:26:43.931Z,1013.46
2018-04-24T03:27:52.773Z,1013.47
2018-04-24T03:29:02.152Z,1013.44
2018-04-24T03:30:10.985Z,1013.47
2018-04-24T03:31:20.371Z,1013.51
2018-04-24T03:32:29.967Z,1013.52
2018-04-24T03:33:38.803Z,1013.52
2018-04-24T03:34:47.908Z,1013.48
2018-04-24T03:35:56.744Z,1013.45
2018-04-24T03:37:05.580Z,1013.5
2018-04-24T03:38:14.514Z,1013.44
2018-04-24T03:39:23.350Z,1013.44
2018-04-24T03:40:32.182Z,1013.45
2018-04-24T03:41:41.017Z,1013.5
2018-04-24T03:42:49.849Z,1013.5
2018-04-24T03:43:58.680Z,1013.51
2018-04-24T03:45:07.523Z,1013.49
2018-04-24T03:46:16.350Z,1013.49
2018-04-24T03:47:25.189Z,1013.51
2018-04-24T03:48:34.020Z,1013.49
2018-04-24T03:49:42.957Z,1013.44
2018-04-24T03:50:51.787Z,1013.43
2018-04-24T03:52:00.619Z,1013.39
2018-04-24T03:53:09.454Z,1013.37
2018-04-24T03:54:18.287Z,1013.37
2018-04-24T03:55:27.221Z,1013.37
2018-04-24T03:56:36.108Z,1013.47
2018-04-24T03:57:44.948Z,1013.39
2018-04-24T03:58:54.061Z,1013.42
2018-04-24T04:00:02.897Z,1013.38
2018-04-24T04:01:12.105Z,1013.36
2018-04-24T04:02:20.937Z,1013.39
2018-04-24T04:03:30.045Z,1013.35
2018-04-24T04:04:39.211Z,1013.29
2018-04-24T04:05:48.045Z,1013.34
2018-04-24T04:06:56.982Z,1013.41
2018-04-24T04:08:05.817Z,1013.34
2018-04-24T04:09:14.650Z,1013.37
2018-04-24T04:10:23.762Z,1013.32
2018-04-24T04:11:32.592Z,1013.31
2018-04-24T04:12:41.800Z,1013.24
2018-04-24T04:13:50.633Z,1013.32
2018-04-24T04:14:59.467Z,1013.3
2018-04-24T04:16:08.300Z,1013.34
2018-04-24T04:17:17.757Z,1013.33
2018-04-24T04:18:26.890Z,1013.35
2018-04-24T04:19:35.727Z,1013.32
2018-04-24T04:20:44.561Z,1013.33
2018-04-24T04:21:53.668Z,1013.3
2018-04-24T04:23:02.781Z,1013.28
2018-04-24T04:24:11.886Z,1013.22
2018-04-24T04:25:20.720Z,1013.24
2018-04-24T04:26:29.551Z,1013.23
2018-04-24T04:27:38.659Z,1013.25
2018-04-24T04:28:47.764Z,1013.21
2018-04-24T04:29:56.696Z,1013.22
2018-04-24T04:31:05.533Z,1013.2
2018-04-24T04:32:14.367Z,1013.21
2018-04-24T04:33:23.201Z,1013.2
2018-04-24T04:34:32.307Z,1013.18
2018-04-24T04:35:41.338Z,1013.2
2018-04-24T04:36:50.527Z,1013.2
2018-04-24T04:37:59.365Z,1013.17
2018-04-24T04:39:08.194Z,1013.14
2018-04-24T04:40:17.029Z,1013.2
2018-04-24T04:41:26.025Z,1013.23
2018-04-24T04:42:35.094Z,1013.31
2018-04-24T04:43:43.944Z,1013.34
2018-04-24T04:44:52.788Z,1013.32
2018-04-24T04:46:01.680Z,1013.23
2018-04-24T04:47:10.845Z,1013.23
2018-04-24T04:48:19.781Z,1013.25
2018-04-24T04:49:29.500Z,1013.19
2018-04-24T04:50:38.333Z,1013.24
2018-04-24T04:51:47.441Z,1013.24
2018-04-24T04:52:56.275Z,1013.22
2018-04-24T04:54:05.113Z,1013.27
2018-04-24T04:55:13.945Z,1013.29
2018-04-24T04:56:23.056Z,1013.32
2018-04-24T04:57:32.166Z,1013.35
2018-04-24T04:58:40.997Z,1013.36
2018-04-24T04:59:50.111Z,1013.31
2018-04-24T05:00:58.950Z,1013.33
2018-04-24T05:02:07.784Z,1013.36
2018-04-24T05:03:16.891Z,1013.37
2018-04-24T05:04:26.009Z,1013.36
2018-04-24T05:05:35.181Z,1013.41
2018-04-24T05:06:43.976Z,1013.4
2018-04-24T05:07:52.808Z,1013.37
2018-04-24T05:09:01.917Z,1013.43
2018-04-24T05:10:10.749Z,1013.45
2018-04-24T05:11:19.581Z,1013.39
2018-04-24T05:12:28.414Z,1013.33
2018-04-24T05:13:37.245Z,1013.33
2018-04-24T05:14:46.079Z,1013.34
2018-04-24T05:15:54.914Z,1013.32
2018-04-24T05:17:04.031Z,1013.34
2018-04-24T05:18:13.188Z,1013.39
2018-04-24T05:19:22.305Z,1013.4
2018-04-24T05:20:31.140Z,1013.38
2018-04-24T05:21:39.971Z,1013.38
2018-04-24T05:22:48.803Z,1013.44
2018-04-24T05:23:58.019Z,1013.45
2018-04-24T05:25:06.854Z,1013.41
2018-04-24T05:26:15.962Z,1013.43
2018-04-24T05:27:24.796Z,1013.56
2018-04-24T05:28:33.628Z,1013.53
2018-04-24T05:29:42.513Z,1013.58
2018-04-24T05:30:51.348Z,1013.61
2018-04-24T05:32:00.186Z,1013.52
2018-04-24T05:33:09.026Z,1013.53
2018-04-24T05:34:18.134Z,1013.47
2018-04-24T05:35:26.969Z,1013.49
2018-04-24T05:36:35.806Z,1013.4
2018-04-24T05:37:44.920Z,1013.42
2018-04-24T05:38:54.359Z,1013.37
2018-04-24T05:40:03.477Z,1013.31
2018-04-24T05:41:12.605Z,1013.38
2018-04-24T05:42:21.562Z,1013.26
2018-04-24T05:43:30.522Z,1013.34
2018-04-24T05:44:39.513Z,1013.34
2018-04-24T05:45:48.808Z,1013.42
2018-04-24T05:46:57.811Z,1013.45
2018-04-24T05:48:06.807Z,1013.54
2018-04-24T05:49:15.658Z,1013.52
2018-04-24T05:50:24.779Z,1013.55
2018-04-24T05:51:33.883Z,1013.55
2018-04-24T05:52:42.717Z,1013.52
2018-04-24T05:53:51.555Z,1013.57
2018-04-24T05:55:00.390Z,1013.6
2018-04-24T05:56:09.224Z,1013.59
2018-04-24T05:57:18.057Z,1013.62
2018-04-24T05:58:27.173Z,1013.59
2018-04-24T05:59:36.007Z,1013.58
2018-04-24T06:00:44.843Z,1013.54
2018-04-24T06:01:53.675Z,1013.58
2018-04-24T06:03:02.565Z,1013.5
2018-04-24T06:04:12.135Z,1013.54
2018-04-24T06:05:20.968Z,1013.53
2018-04-24T06:06:29.853Z,1013.5
2018-04-24T06:07:38.686Z,1013.56
2018-04-24T06:08:47.520Z,1013.6
2018-04-24T06:09:56.641Z,1013.56
2018-04-24T06:11:05.749Z,1013.63
2018-04-24T06:12:14.859Z,1013.55
2018-04-24T06:13:23.841Z,1013.6
2018-04-24T06:14:32.816Z,1013.62
2018-04-24T06:15:42.481Z,1013.56
2018-04-24T06:16:51.312Z,1013.5
2018-04-24T06:18:00.152Z,1013.57
2018-04-24T06:19:08.992Z,1013.58
2018-04-24T06:20:17.831Z,1013.63
2018-04-24T06:21:26.663Z,1013.65
2018-04-24T06:22:35.528Z,1013.62
2018-04-24T06:23:44.893Z,1013.6
2018-04-24T06:24:54.001Z,1013.64
2018-04-24T06:26:02.838Z,1013.73
2018-04-24T06:27:11.670Z,1013.72
2018-04-24T06:28:20.567Z,1013.7
2018-04-24T06:29:29.341Z,1013.62
2018-04-24T06:30:38.728Z,1013.67
2018-04-24T06:31:47.562Z,1013.7
2018-04-24T06:32:56.392Z,1013.69
2018-04-24T06:34:05.229Z,1013.64
2018-04-24T06:35:14.335Z,1013.65
2018-04-24T06:36:23.165Z,1013.64
2018-04-24T06:37:32.000Z,1013.63
2018-04-24T06:38:40.833Z,1013.59
2018-04-24T06:39:49.672Z,1013.55
2018-04-24T06:40:58.826Z,1013.63
2018-04-24T06:42:07.660Z,1013.63
2018-04-24T06:43:16.492Z,1013.65
2018-04-24T06:44:25.347Z,1013.71
2018-04-24T06:45:34.158Z,1013.65
2018-04-24T06:46:43.278Z,1013.64
2018-04-24T06:47:52.146Z,1013.7
2018-04-24T06:49:00.944Z,1013.66
2018-04-24T06:50:09.776Z,1013.72
2018-04-24T06:51:18.887Z,1013.73
2018-04-24T06:52:27.722Z,1013.68
2018-04-24T06:53:36.552Z,1013.78
2018-04-24T06:54:45.383Z,1013.74
2018-04-24T06:55:54.217Z,1013.79
2018-04-24T06:57:03.051Z,1013.85
2018-04-24T06:58:11.885Z,1013.77
2018-04-24T06:59:21.272Z,1013.7
2018-04-24T07:00:30.114Z,1013.68
2018-04-24T07:01:39.567Z,1013.66
2018-04-24T07:02:48.681Z,1013.8
2018-04-24T07:03:58.062Z,1013.69
2018-04-24T07:05:06.898Z,1013.69
2018-04-24T07:06:16.006Z,1013.72
2018-04-24T07:07:25.134Z,1013.77
2018-04-24T07:08:33.967Z,1013.72
2018-04-24T07:09:42.803Z,1013.77
2018-04-24T07:10:51.637Z,1013.8
2018-04-24T07:12:00.471Z,1013.79
2018-04-24T07:13:09.302Z,1013.73
2018-04-24T07:14:18.138Z,1013.69
2018-04-24T07:15:26.975Z,1013.75
2018-04-24T07:16:36.083Z,1013.79
2018-04-24T07:17:45.198Z,1013.87
2018-04-24T07:18:54.031Z,1013.89
2018-04-24T07:20:03.139Z,1013.8
2018-04-24T07:21:11.972Z,1013.81
2018-04-24T07:22:20.806Z,1013.88
2018-04-24T07:23:29.917Z,1013.9
2018-04-24T07:24:38.753Z,1013.89
2018-04-24T07:25:47.587Z,1013.84
2018-04-24T07:26:56.699Z,1013.9
2018-04-24T07:28:06.115Z,1013.85
2018-04-24T07:29:14.956Z,1014.03
2018-04-24T07:30:23.793Z,1013.87
2018-04-24T07:31:32.627Z,1013.89
2018-04-24T07:32:41.511Z,1013.91
2018-04-24T07:33:50.343Z,1013.91
2018-04-24T07:34:59.180Z,1013.91
2018-04-24T07:36:08.016Z,1013.94
2018-04-24T07:37:17.122Z,1013.9
2018-04-24T07:38:25.956Z,1013.92
2018-04-24T07:39:34.789Z,1013.84
2018-04-24T07:40:43.625Z,1013.87
2018-04-24T07:41:52.732Z,1013.91
2018-04-24T07:43:01.568Z,1013.95
2018-04-24T07:44:10.404Z,1013.94
2018-04-24T07:45:19.237Z,1013.87
2018-04-24T07:46:28.152Z,1013.94
2018-04-24T07:47:37.593Z,1013.92
2018-04-24T07:48:46.427Z,1013.95
2018-04-24T07:49:55.414Z,1013.92
2018-04-24T07:51:04.254Z,1013.88
2018-04-24T07:52:13.365Z,1013.94
2018-04-24T07:53:22.198Z,1013.98
2018-04-24T07:54:31.034Z,1014.01
2018-04-24T07:55:39.868Z,1014.08
2018-04-24T07:56:48.697Z,1014.03
2018-04-24T07:57:57.800Z,1014.02
2018-04-24T07:59:06.634Z,1014.04
2018-04-24T08:00:15.467Z,1014.03
2018-04-24T08:01:24.300Z,1014.04
2018-04-24T08:02:33.135Z,1014.06
2018-04-24T08:03:42.246Z,1014.06
2018-04-24T08:04:51.081Z,1014.01
2018-04-24T08:05:59.914Z,1014.02
2018-04-24T08:07:08.799Z,1013.97
2018-04-24T08:08:17.930Z,1014.02
2018-04-24T08:09:26.742Z,1013.98
2018-04-24T08:10:35.853Z,1013.98
2018-04-24T08:11:44.690Z,1014.03
2018-04-24T08:12:53.521Z,1014
2018-04-24T08:14:02.355Z,1014.03
2018-04-24T08:15:11.190Z,1014.01
2018-04-24T08:16:20.380Z,1013.98
2018-04-24T08:17:29.135Z,1013.97
2018-04-24T08:18:37.970Z,1014.08
2018-04-24T08:19:46.805Z,1014.05
2018-04-24T08:20:55.917Z,1014.04
2018-04-24T08:22:04.754Z,1013.98
2018-04-24T08:23:13.602Z,1014.1
2018-04-24T08:24:22.483Z,1013.95
2018-04-24T08:25:31.319Z,1013.96
2018-04-24T08:26:40.152Z,1013.96
2018-04-24T08:27:48.989Z,1013.89
2018-04-24T08:28:58.201Z,1013.87
2018-04-24T08:30:07.035Z,1013.86
2018-04-24T08:31:15.874Z,1013.89
2018-04-24T08:32:24.981Z,1013.89
2018-04-24T08:33:33.820Z,1013.92
2018-04-24T08:34:42.951Z,1013.92
2018-04-24T08:35:51.785Z,1013.91
2018-04-24T08:37:00.620Z,1013.92
2018-04-24T08:38:09.735Z,1013.91
2018-04-24T08:39:18.573Z,1014
2018-04-24T08:40:27.956Z,1013.92
2018-04-24T08:41:36.840Z,1013.93
2018-04-24T08:42:45.671Z,1013.84
2018-04-24T08:43:54.787Z,1013.87
2018-04-24T08:45:03.618Z,1013.85
2018-04-24T08:46:12.482Z,1013.96
2018-04-24T08:47:21.296Z,1013.97
2018-04-24T08:48:30.127Z,1013.97
2018-04-24T08:49:39.013Z,1014.03
2018-04-24T08:50:47.846Z,1014.14
2018-04-24T08:51:56.681Z,1014.18
2018-04-24T08:53:05.521Z,1014.11
2018-04-24T08:54:14.352Z,1014.12
2018-04-24T08:55:23.185Z,1014.16
2018-04-24T08:56:32.021Z,1014.22
2018-04-24T08:57:40.856Z,1014.19
2018-04-24T08:58:49.690Z,1014.25
2018-04-24T08:59:58.802Z,1014.25
2018-04-24T09:01:07.917Z,1014.23
2018-04-24T09:02:17.030Z,1014.29
2018-04-24T09:03:25.865Z,1014.26
2018-04-24T09:04:34.975Z,1014.33
2018-04-24T09:05:44.084Z,1014.33
2018-04-24T09:06:52.920Z,1014.33
2018-04-24T09:08:01.757Z,1014.24
2018-04-24T09:09:10.602Z,1014.26
2018-04-24T09:10:19.441Z,1014.28
2018-04-24T09:11:28.272Z,1014.33
2018-04-24T09:12:37.386Z,1014.35
2018-04-24T09:13:46.226Z,1014.33
2018-04-24T09:14:55.069Z,1014.35
2018-04-24T09:16:04.188Z,1014.4
2018-04-24T09:17:13.300Z,1014.37
2018-04-24T09:18:22.409Z,1014.37
2018-04-24T09:19:31.517Z,1014.39
2018-04-24T09:20:40.351Z,1014.39
2018-04-24T09:21:49.185Z,1014.3
2018-04-24T09:22:58.020Z,1014.37
2018-04-24T09:24:06.853Z,1014.49
2018-04-24T09:25:15.964Z,1014.45
2018-04-24T09:26:24.799Z,1014.47
2018-04-24T09:27:33.636Z,1014.51
2018-04-24T09:28:42.470Z,1014.53
2018-04-24T09:29:51.305Z,1014.55
2018-04-24T09:31:00.624Z,1014.57
2018-04-24T09:32:09.560Z,1014.6
2018-04-24T09:33:18.440Z,1014.54
2018-04-24T09:34:27.275Z,1014.65
2018-04-24T09:35:36.384Z,1014.59
2018-04-24T09:36:45.494Z,1014.58
2018-04-24T09:37:54.603Z,1014.6
2018-04-24T09:39:03.522Z,1014.62
2018-04-24T09:40:12.676Z,1014.61
2018-04-24T09:41:21.512Z,1014.65
2018-04-24T09:42:30.626Z,1014.61
2018-04-24T09:43:39.464Z,1014.62
2018-04-24T09:44:48.574Z,1014.7
2018-04-24T09:45:57.757Z,1014.62
2018-04-24T09:47:07.650Z,1014.64
2018-04-24T09:48:16.420Z,1014.64
2018-04-24T09:49:25.275Z,1014.62
2018-04-24T09:50:34.835Z,1014.61
2018-04-24T09:51:43.671Z,1014.64
2018-04-24T09:52:52.505Z,1014.66
2018-04-24T09:54:01.405Z,1014.6
2018-04-24T09:55:10.179Z,1014.55
2018-04-24T09:56:19.013Z,1014.55
2018-04-24T09:57:28.120Z,1014.63
2018-04-24T09:58:36.953Z,1014.51
2018-04-24T09:59:45.786Z,1014.55
2018-04-24T10:00:54.621Z,1014.49
2018-04-24T10:02:03.470Z,1014.45
2018-04-24T10:03:12.300Z,1014.56
2018-04-24T10:04:21.140Z,1014.5
2018-04-24T10:05:30.591Z,1014.45
2018-04-24T10:06:39.428Z,1014.44
2018-04-24T10:07:48.357Z,1014.47
2018-04-24T10:08:57.456Z,1014.46
2018-04-24T10:10:06.574Z,1014.47
2018-04-24T10:11:15.404Z,1014.37
2018-04-24T10:12:24.237Z,1014.41
2018-04-24T10:13:33.141Z,1014.41
2018-04-24T10:14:43.133Z,1014.42
2018-04-24T10:15:51.969Z,1014.46
2018-04-24T10:17:01.081Z,1014.51
2018-04-24T10:18:09.916Z,1014.45
2018-04-24T10:19:18.746Z,1014.39
2018-04-24T10:20:27.582Z,1014.46
2018-04-24T10:21:36.415Z,1014.45
2018-04-24T10:22:45.251Z,1014.42
2018-04-24T10:23:54.188Z,1014.43
2018-04-24T10:25:03.025Z,1014.45
2018-04-24T10:26:12.139Z,1014.41
2018-04-24T10:27:21.066Z,1014.5
2018-04-24T10:28:29.803Z,1014.5
2018-04-24T10:29:38.915Z,1014.51
2018-04-24T10:30:48.025Z,1014.43
2018-04-24T10:31:56.864Z,1014.45
2018-04-24T10:33:05.697Z,1014.43
2018-04-24T10:34:14.531Z,1014.45
2018-04-24T10:35:23.365Z,1014.44
2018-04-24T10:36:32.198Z,1014.47
2018-04-24T10:37:41.031Z,1014.5
2018-04-24T10:38:49.867Z,1014.51
2018-04-24T10:39:58.702Z,1014.56
2018-04-24T10:41:07.819Z,1014.47
2018-04-24T10:42:16.653Z,1014.47
2018-04-24T10:43:25.488Z,1014.49
2018-04-24T10:44:34.326Z,1014.45
2018-04-24T10:45:43.435Z,1014.54
2018-04-24T10:46:52.269Z,1014.48
2018-04-24T10:48:01.136Z,1014.55
2018-04-24T10:49:09.943Z,1014.51
2018-04-24T10:50:18.778Z,1014.55
2018-04-24T10:51:27.613Z,1014.51
2018-04-24T10:52:36.445Z,1014.53
2018-04-24T10:53:45.278Z,1014.54
2018-04-24T10:54:54.114Z,1014.58
2018-04-24T10:56:03.268Z,1014.65
2018-04-24T10:57:12.341Z,1014.66
2018-04-24T10:58:21.728Z,1014.57
2018-04-24T10:59:30.564Z,1014.66
2018-04-24T11:00:39.402Z,1014.64
2018-04-24T11:01:48.239Z,1014.66
2018-04-24T11:02:57.352Z,1014.7
2018-04-24T11:04:06.186Z,1014.72
2018-04-24T11:05:15.020Z,1014.76
2018-04-24T11:06:23.855Z,1014.73
2018-04-24T11:07:32.690Z,1014.74
2018-04-24T11:08:41.525Z,1014.72
2018-04-24T11:09:50.366Z,1014.69
2018-04-24T11:10:59.512Z,1014.7
2018-04-24T11:12:08.355Z,1014.76
2018-04-24T11:13:17.194Z,1014.7
2018-04-24T11:14:26.027Z,1014.72
2018-04-24T11:15:35.158Z,1014.78
2018-04-24T11:16:44.545Z,1014.71
2018-04-24T11:17:53.385Z,1014.74
2018-04-24T11:19:02.215Z,1014.83
2018-04-24T11:20:11.050Z,1014.83
2018-04-24T11:21:19.912Z,1014.82
2018-04-24T11:22:28.724Z,1014.81
2018-04-24T11:23:37.561Z,1014.84
2018-04-24T11:24:46.669Z,1014.81
2018-04-24T11:25:55.508Z,1014.76
2018-04-24T11:27:04.347Z,1014.82
2018-04-24T11:28:13.191Z,1014.76
2018-04-24T11:29:22.036Z,1014.83
2018-04-24T11:30:30.872Z,1014.81
2018-04-24T11:31:39.988Z,1014.85
2018-04-24T11:32:48.824Z,1014.92
2018-04-24T11:33:57.710Z,1014.83
2018-04-24T11:35:06.547Z,1014.86
2018-04-24T11:36:15.381Z,1014.9
2018-04-24T11:37:24.217Z,1014.91
2018-04-24T11:38:33.056Z,1014.94
2018-04-24T11:39:41.892Z,1014.94
2018-04-24T11:40:50.731Z,1014.95
2018-04-24T11:41:59.856Z,1014.9
2018-04-24T11:43:08.711Z,1014.98
2018-04-24T11:44:17.844Z,1014.93
2018-04-24T11:45:26.697Z,1014.9
2018-04-24T11:46:35.524Z,1014.87
2018-04-24T11:47:44.380Z,1014.88
2018-04-24T11:48:53.215Z,1014.83
2018-04-24T11:50:02.051Z,1014.92
2018-04-24T11:51:11.263Z,1014.83
2018-04-24T11:52:20.098Z,1014.82
2018-04-24T11:53:29.219Z,1014.83
2018-04-24T11:54:38.051Z,1014.85
2018-04-24T11:55:46.889Z,1014.8
2018-04-24T11:56:55.724Z,1014.83
2018-04-24T11:58:04.561Z,1014.89
2018-04-24T11:59:13.672Z,1014.88
2018-04-24T12:00:22.511Z,1014.91
2018-04-24T12:01:31.346Z,1014.76
2018-04-24T12:02:40.209Z,1014.8
2018-04-24T12:03:49.799Z,1014.74
2018-04-24T12:04:58.908Z,1014.78
2018-04-24T12:06:08.016Z,1014.72
2018-04-24T12:07:17.127Z,1014.71
2018-04-24T12:08:25.961Z,1014.63
2018-04-24T12:09:35.075Z,1014.67
2018-04-24T12:10:43.913Z,1014.61
2018-04-24T12:11:53.029Z,1014.64
2018-04-24T12:13:02.432Z,1014.72
2018-04-24T12:14:11.266Z,1014.7
2018-04-24T12:15:20.100Z,1014.68
2018-04-24T12:16:28.939Z,1014.67
2018-04-24T12:17:37.782Z,1014.74
2018-04-24T12:18:46.619Z,1014.7
2018-04-24T12:19:55.457Z,1014.68
2018-04-24T12:21:04.290Z,1014.75
2018-04-24T12:22:13.126Z,1014.75
2018-04-24T12:23:22.251Z,1014.78
2018-04-24T12:24:31.404Z,1014.74
2018-04-24T12:25:40.397Z,1014.79
2018-04-24T12:26:49.235Z,1014.88
2018-04-24T12:27:58.072Z,1014.82
2018-04-24T12:29:06.907Z,1014.87
2018-04-24T12:30:15.742Z,1014.87
2018-04-24T12:31:24.581Z,1014.93
2018-04-24T12:32:33.415Z,1014.83
2018-04-24T12:33:42.254Z,1014.86
2018-04-24T12:34:51.089Z,1014.85
2018-04-24T12:35:59.925Z,1014.85
2018-04-24T12:37:09.034Z,1014.84
2018-04-24T12:38:17.869Z,1014.76
2018-04-24T12:39:26.708Z,1014.81
2018-04-24T12:40:35.832Z,1014.79
2018-04-24T12:41:44.672Z,1014.76
2018-04-24T12:42:53.556Z,1014.86
2018-04-24T12:44:02.393Z,1014.77
2018-04-24T12:45:11.240Z,1014.82
2018-04-24T12:46:20.927Z,1014.75
2018-04-24T12:47:30.047Z,1014.75
2018-04-24T12:48:38.891Z,1014.8
2018-04-24T12:49:47.725Z,1014.8
2018-04-24T12:50:56.842Z,1014.77
2018-04-24T12:52:05.959Z,1014.74
2018-04-24T12:53:14.805Z,1014.69
2018-04-24T12:54:23.650Z,1014.71
2018-04-24T12:55:32.520Z,1014.58
2018-04-24T12:56:41.384Z,1014.71
2018-04-24T12:57:50.317Z,1014.66
2018-04-24T12:59:00.310Z,1014.65
2018-04-24T13:00:09.413Z,1014.65
2018-04-24T13:01:18.251Z,1014.59
2018-04-24T13:02:27.964Z,1014.62
2018-04-24T13:03:37.158Z,1014.62
2018-04-24T13:04:46.682Z,1014.62
2018-04-24T13:05:55.984Z,1014.62
2018-04-24T13:07:05.149Z,1014.59
2018-04-24T13:08:14.250Z,1014.53
2018-04-24T13:09:23.170Z,1014.52
2018-04-24T13:10:32.318Z,1014.48
2018-04-24T13:11:41.199Z,1014.44
2018-04-24T13:12:50.096Z,1014.45
2018-04-24T13:13:59.208Z,1014.46
2018-04-24T13:15:08.543Z,1014.48
2018-04-24T13:16:17.446Z,1014.39
2018-04-24T13:17:26.387Z,1014.41
2018-04-24T13:18:35.548Z,1014.4
2018-04-24T13:19:44.608Z,1014.4
2018-04-24T13:20:53.442Z,1014.39
2018-04-24T13:22:02.283Z,1014.39
2018-04-24T13:23:11.217Z,1014.35
2018-04-24T13:24:20.052Z,1014.38
2018-04-24T13:25:29.174Z,1014.35
2018-04-24T13:26:38.794Z,1014.34
2018-04-24T13:27:47.629Z,1014.39
2018-04-24T13:28:56.465Z,1014.33
2018-04-24T13:30:05.310Z,1014.35
2018-04-24T13:31:14.462Z,1014.26
2018-04-24T13:32:23.266Z,1014.3
2018-04-24T13:33:32.103Z,1014.3
2018-04-24T13:34:41.412Z,1014.23
2018-04-24T13:35:50.253Z,1014.23
2018-04-24T13:36:59.090Z,1014.29
2018-04-24T13:38:07.925Z,1014.21
2018-04-24T13:39:16.761Z,1014.22
2018-04-24T13:40:25.798Z,1014.21
2018-04-24T13:41:34.635Z,1014.24
2018-04-24T13:42:43.472Z,1014.12
2018-04-24T13:43:52.309Z,1014.15
2018-04-24T13:45:01.144Z,1014.12
2018-04-24T13:46:10.081Z,1014.06
2018-04-24T13:47:18.929Z,1014.13
2018-04-24T13:48:27.768Z,1014.09
2018-04-24T13:49:36.876Z,1014.07
2018-04-24T13:50:45.713Z,1014.08
2018-04-24T13:51:54.648Z,1014.12
2018-04-24T13:53:03.484Z,1014.12
2018-04-24T13:54:12.329Z,1014.05
2018-04-24T13:55:21.220Z,1014.06
2018-04-24T13:56:29.993Z,1014.03
2018-04-24T13:57:38.826Z,1014.08